Time;durP1;ratioP1;P1;durP2;ratioP2;P2;SDS_P1;SDS_P2;PMS_P1;PMS_P2;Temp;Humidity;BMP_temperature;BMP_pressure;BME280_temperature;BME280_humidity;BME280_pressure;Samples;Min_cycle;Max_cycle;Signal;HPM_P1;HPM_P2
2023/06/23 00:01:00;;;;;;;17.45;7.88;;;;;;;16.40;100.00;101421.44;5011826;28;20030;-72
2023/06/23 00:03:26;;;;;;;12.77;8.05;;;;;;;16.38;100.00;101421.63;5014368;28;20594;-71
2023/06/23 00:05:51;;;;;;;14.70;8.32;;;;;;;16.34;100.00;101417.72;5011682;28;20044;-73
2023/06/23 00:08:17;;;;;;;12.02;7.68;;;;;;;16.41;100.00;101423.88;5010340;28;20034;-73
2023/06/23 00:10:45;;;;;;;14.45;8.35;;;;;;;16.41;100.00;101418.66;5010473;28;20041;-73
2023/06/23 00:13:11;;;;;;;15.77;8.75;;;;;;;16.27;100.00;101416.81;5005845;28;20041;-73
2023/06/23 00:15:37;;;;;;;10.80;7.70;;;;;;;16.31;100.00;101432.00;5018550;28;20041;-73
2023/06/23 00:18:02;;;;;;;12.52;7.38;;;;;;;16.36;100.00;101439.31;5007280;28;20465;-72
2023/06/23 00:20:28;;;;;;;12.43;7.63;;;;;;;16.35;100.00;101437.69;5007799;28;20038;-73
2023/06/23 00:22:55;;;;;;;13.23;7.80;;;;;;;16.30;100.00;101432.16;4989551;28;20555;-73
2023/06/23 00:25:20;;;;;;;12.25;7.22;;;;;;;16.33;100.00;101432.63;5006532;28;20045;-74
2023/06/23 00:27:46;;;;;;;11.93;7.22;;;;;;;16.25;100.00;101431.88;4991299;28;20057;-76
2023/06/23 00:30:13;;;;;;;11.57;8.00;;;;;;;16.18;100.00;101434.41;5016519;28;20524;-74
2023/06/23 00:32:39;;;;;;;11.38;7.20;;;;;;;16.23;100.00;101436.47;5011108;28;20042;-75
2023/06/23 00:35:09;;;;;;;12.07;7.60;;;;;;;16.17;100.00;101440.63;4999758;28;20069;-74
2023/06/23 00:37:37;;;;;;;12.25;7.57;;;;;;;16.12;100.00;101446.41;5015390;28;20067;-73
2023/06/23 00:40:04;;;;;;;10.82;7.80;;;;;;;16.19;100.00;101446.50;5010439;28;20493;-73
2023/06/23 00:42:31;;;;;;;11.77;7.72;;;;;;;16.20;100.00;101450.75;4992554;28;20612;-74
2023/06/23 00:44:57;;;;;;;12.00;6.65;;;;;;;16.17;100.00;101463.38;5005993;28;20103;-74
2023/06/23 00:47:24;;;;;;;9.75;6.50;;;;;;;16.15;100.00;101463.53;5018022;28;20378;-75
2023/06/23 00:49:50;;;;;;;14.88;6.82;;;;;;;16.18;100.00;101475.44;5006283;28;20087;-73
2023/06/23 00:52:16;;;;;;;10.90;6.85;;;;;;;16.22;100.00;101482.78;5010908;28;20025;-74
2023/06/23 00:54:42;;;;;;;9.20;5.53;;;;;;;16.22;100.00;101490.63;5020069;28;20524;-74
2023/06/23 00:57:10;;;;;;;11.98;6.60;;;;;;;16.15;100.00;101495.75;5010316;28;20578;-74
2023/06/23 00:59:36;;;;;;;8.77;5.93;;;;;;;16.12;100.00;101483.03;4992636;28;20138;-74
2023/06/23 01:02:02;;;;;;;11.27;6.30;;;;;;;16.11;100.00;101485.81;5011728;28;20045;-75
2023/06/23 01:04:33;;;;;;;10.15;6.25;;;;;;;16.13;100.00;101489.06;5009776;28;20078;-72
2023/06/23 01:07:11;;;;;;;10.15;6.25;;;;;;;16.09;100.00;101488.59;5008494;28;20026;-73
2023/06/23 01:09:47;;;;;;;8.93;5.50;;;;;;;16.04;100.00;101490.91;5014000;28;20128;-75
2023/06/23 01:12:33;;;;;;;10.98;5.55;;;;;;;16.07;100.00;101490.59;5007331;28;20030;-73
2023/06/23 01:15:16;;;;;;;11.13;6.03;;;;;;;16.10;100.00;101498.06;5006579;28;20038;-72
2023/06/23 01:17:48;;;;;;;;;;;;;;;16.10;100.00;101503.28;5007030;28;20026;-74
2023/06/23 01:20:24;;;;;;;13.10;7.63;;;;;;;15.95;100.00;101511.09;5005661;28;19924;-76
2023/06/23 01:22:55;;;;;;;11.68;6.60;;;;;;;15.92;100.00;101514.06;4993241;28;20456;-73
2023/06/23 01:25:30;;;;;;;14.57;7.03;;;;;;;15.94;100.00;101527.78;5004578;28;20048;-74
2023/06/23 01:28:15;;;;;;;16.80;7.53;;;;;;;15.91;100.00;101524.69;5020886;28;20568;-74
2023/06/23 01:30:44;;;;;;;10.88;7.43;;;;;;;15.92;100.00;101531.56;5006280;28;20139;-75
2023/06/23 01:33:17;;;;;;;17.50;7.63;;;;;;;15.92;100.00;101534.19;5001115;28;20041;-73
2023/06/23 01:35:51;;;;;;;14.15;7.70;;;;;;;15.90;100.00;101530.91;5004126;28;20026;-75
2023/06/23 01:38:24;;;;;;;12.55;7.70;;;;;;;15.85;100.00;101539.28;5007693;28;20036;-74
2023/06/23 01:40:54;;;;;;;10.85;7.57;;;;;;;15.84;100.00;101542.06;5008566;28;20436;-74
2023/06/23 01:43:29;;;;;;;13.10;7.13;;;;;;;15.80;100.00;101540.78;4990447;28;20084;-74
2023/06/23 01:46:15;;;;;;;12.45;8.15;;;;;;;15.74;100.00;101540.47;5005198;28;20477;-75
2023/06/23 01:48:44;;;;;;;11.82;8.00;;;;;;;15.69;100.00;101553.22;5007501;28;20085;-73
2023/06/23 01:51:11;;;;;;;10.73;7.55;;;;;;;15.68;100.00;101561.25;5007793;28;20054;-73
2023/06/23 01:53:37;;;;;;;11.00;7.80;;;;;;;15.71;100.00;101564.31;5012952;28;20670;-74
2023/06/23 01:56:05;;;;;;;14.55;8.65;;;;;;;15.66;100.00;101564.03;5005388;28;20508;-75
2023/06/23 01:58:33;;;;;;;15.63;8.52;;;;;;;15.67;100.00;101560.44;5006584;28;20275;-74
2023/06/23 02:01:00;;;;;;;14.00;7.85;;;;;;;15.62;100.00;101569.78;4996020;28;20125;-75
2023/06/23 02:03:28;;;;;;;17.45;8.90;;;;;;;15.61;100.00;101573.34;4989872;28;20066;-75
2023/06/23 02:05:56;;;;;;;14.90;8.40;;;;;;;15.61;100.00;101579.38;5007439;28;20029;-74
2023/06/23 02:08:25;;;;;;;11.55;7.95;;;;;;;15.60;100.00;101583.00;5010377;28;20038;-74
2023/06/23 02:10:53;;;;;;;13.88;9.40;;;;;;;15.60;100.00;101579.59;5030970;28;20045;-76
2023/06/23 02:13:20;;;;;;;16.33;8.68;;;;;;;15.58;100.00;101585.78;5009237;28;20092;-77
2023/06/23 02:15:48;;;;;;;18.75;8.85;;;;;;;15.63;100.00;101584.44;5018255;28;20636;-74
2023/06/23 02:18:15;;;;;;;12.98;8.75;;;;;;;15.56;100.00;101594.78;5011613;28;20037;-75
2023/06/23 02:20:43;;;;;;;13.63;8.20;;;;;;;15.55;100.00;101593.16;5014182;28;20029;-74
2023/06/23 02:23:09;;;;;;;15.50;8.45;;;;;;;15.51;100.00;101600.50;5008876;28;20496;-74
2023/06/23 02:25:35;;;;;;;16.42;9.50;;;;;;;15.52;100.00;101602.16;5015231;28;20109;-74
2023/06/23 02:28:01;;;;;;;16.33;8.60;;;;;;;15.50;100.00;101604.13;5027303;28;20038;-75
2023/06/23 02:30:28;;;;;;;18.40;10.55;;;;;;;15.52;100.00;101607.38;5020207;28;20072;-74
2023/06/23 02:32:56;;;;;;;14.77;9.13;;;;;;;15.50;100.00;101617.19;5029098;28;20692;-74
2023/06/23 02:35:23;;;;;;;20.50;10.07;;;;;;;15.52;100.00;101619.59;5020053;28;20038;-76
2023/06/23 02:38:09;;;;;;;15.23;9.40;;;;;;;15.57;100.00;101618.13;5009879;28;20065;-75
2023/06/23 02:40:37;;;;;;;20.58;11.32;;;;;;;15.56;100.00;101626.16;5009356;28;20044;-75
2023/06/23 02:43:14;;;;;;;14.18;9.25;;;;;;;15.57;100.00;101617.31;5005157;28;20121;-74
2023/06/23 02:45:43;;;;;;;19.98;10.32;;;;;;;15.56;100.00;101628.78;5020881;28;20050;-75
2023/06/23 02:48:36;;;;;;;20.70;9.88;;;;;;;15.58;100.00;101632.84;5010947;28;20401;-76
2023/06/23 02:51:03;;;;;;;19.38;11.02;;;;;;;15.63;100.00;101636.72;5002174;28;20540;-76
2023/06/23 02:53:34;;;;;;;18.42;10.90;;;;;;;15.63;100.00;101634.94;5015691;28;20408;-75
2023/06/23 02:56:05;;;;;;;20.15;10.82;;;;;;;15.57;100.00;101643.44;5018237;28;20034;-74
2023/06/23 02:58:31;;;;;;;16.65;10.52;;;;;;;15.62;100.00;101641.16;4997199;28;20083;-75
2023/06/23 03:00:58;;;;;;;21.05;11.30;;;;;;;15.57;100.00;101649.50;4993960;28;20038;-75
2023/06/23 03:03:26;;;;;;;19.83;11.15;;;;;;;15.56;100.00;101647.06;4999559;28;20492;-78
2023/06/23 03:05:52;;;;;;;20.75;10.93;;;;;;;15.59;100.00;101654.56;5031326;28;20030;-74
2023/06/23 03:08:17;;;;;;;17.42;11.35;;;;;;;15.57;100.00;101657.31;5011732;28;20041;-75
2023/06/23 03:10:43;;;;;;;22.77;11.70;;;;;;;15.55;100.00;101656.69;5018986;28;20515;-75
2023/06/23 03:13:09;;;;;;;18.25;11.55;;;;;;;15.53;100.00;101655.22;5011972;28;20026;-80
2023/06/23 03:15:36;;;;;;;22.40;12.15;;;;;;;15.52;100.00;101657.03;5014504;28;20057;-74
2023/06/23 03:18:12;;;;;;;18.92;11.40;;;;;;;15.45;100.00;101657.88;5013490;28;20555;-74
2023/06/23 03:20:45;;;;;;;18.15;11.40;;;;;;;15.47;100.00;101669.78;5005092;28;20496;-76
2023/06/23 03:23:13;;;;;;;20.70;12.35;;;;;;;15.42;100.00;101685.13;4999197;28;20042;-75
2023/06/23 03:25:41;;;;;;;26.50;12.52;;;;;;;15.41;100.00;101678.31;5013977;28;20026;-73
2023/06/23 03:28:10;;;;;;;20.58;13.80;;;;;;;15.49;100.00;101687.91;5015857;28;20033;-74
2023/06/23 03:30:39;;;;;;;25.77;13.30;;;;;;;15.55;100.00;101685.44;4993435;28;20025;-74
2023/06/23 03:33:11;;;;;;;24.00;13.32;;;;;;;15.52;100.00;101683.19;5015280;28;20029;-74
2023/06/23 03:35:47;;;;;;;25.40;14.23;;;;;;;15.54;100.00;101680.41;5013418;28;20041;-74
2023/06/23 03:38:17;;;;;;;26.08;13.60;;;;;;;15.51;100.00;101686.75;5006220;28;20025;-73
2023/06/23 03:40:59;;;;;;;23.45;13.10;;;;;;;15.50;100.00;101700.00;5005993;28;20049;-75
2023/06/23 03:43:31;;;;;;;22.73;13.98;;;;;;;15.41;100.00;101703.59;5007937;28;20038;-73
2023/06/23 03:46:00;;;;;;;23.52;14.25;;;;;;;15.42;100.00;101710.47;5014552;28;20025;-74
2023/06/23 03:48:31;;;;;;;26.95;14.63;;;;;;;15.44;100.00;101705.88;5009740;28;20064;-75
2023/06/23 03:51:00;;;;;;;24.50;16.17;;;;;;;15.42;100.00;101707.84;5010720;28;20493;-75
2023/06/23 03:53:27;;;;;;;23.92;14.65;;;;;;;15.38;100.00;101708.16;5006331;28;20045;-74
2023/06/23 03:55:55;;;;;;;28.60;15.90;;;;;;;15.38;100.00;101715.19;5012916;28;20034;-77
2023/06/23 03:58:23;;;;;;;33.00;17.08;;;;;;;15.40;100.00;101715.84;5014036;28;20038;-73
2023/06/23 04:00:50;;;;;;;28.52;17.55;;;;;;;15.32;100.00;101716.69;5019111;28;20048;-75
2023/06/23 04:03:18;;;;;;;28.25;16.73;;;;;;;15.28;100.00;101717.19;5013139;28;20033;-75
2023/06/23 04:05:46;;;;;;;30.35;17.25;;;;;;;15.34;100.00;101717.31;5020934;28;20020;-74
2023/06/23 04:08:13;;;;;;;31.45;18.75;;;;;;;15.30;100.00;101716.03;5018738;28;20045;-75
2023/06/23 04:10:39;;;;;;;28.02;16.38;;;;;;;15.26;100.00;101719.97;5009612;28;20033;-74
2023/06/23 04:13:07;;;;;;;30.33;17.20;;;;;;;15.27;100.00;101721.56;5012688;28;20063;-77
2023/06/23 04:15:36;;;;;;;26.27;17.55;;;;;;;15.29;100.00;101721.41;5010081;28;20140;-74
2023/06/23 04:18:03;;;;;;;27.38;17.73;;;;;;;15.33;100.00;101731.38;5008512;28;20026;-74
2023/06/23 04:20:30;;;;;;;31.30;17.90;;;;;;;15.34;100.00;101733.00;5015778;28;20079;-74
2023/06/23 04:22:57;;;;;;;31.10;18.88;;;;;;;15.42;100.00;101742.63;5014755;28;20114;-74
2023/06/23 04:25:23;;;;;;;29.80;17.45;;;;;;;15.47;100.00;101745.56;5010407;28;20050;-73
2023/06/23 04:27:56;;;;;;;31.30;18.08;;;;;;;15.45;100.00;101750.16;5012097;28;20022;-76
2023/06/23 04:30:23;;;;;;;26.35;17.13;;;;;;;15.40;100.00;101757.66;5004195;28;20045;-75
2023/06/23 04:32:49;;;;;;;27.55;16.83;;;;;;;15.38;100.00;101757.00;5010539;28;20048;-75
2023/06/23 04:35:14;;;;;;;25.85;17.05;;;;;;;15.36;100.00;101767.63;5012806;28;20533;-75
2023/06/23 04:37:46;;;;;;;30.08;18.38;;;;;;;15.42;100.00;101774.00;5007634;28;20033;-74
2023/06/23 04:40:38;;;;;;;30.92;17.70;;;;;;;15.40;100.00;101777.75;5006519;28;20033;-75
2023/06/23 04:43:37;;;;;;;31.52;18.83;;;;;;;15.37;100.00;101769.28;5006798;28;20088;-78
2023/06/23 04:46:11;;;;;;;31.13;19.33;;;;;;;15.42;100.00;101774.00;5018017;28;20041;-74
2023/06/23 04:48:48;;;;;;;33.08;19.27;;;;;;;15.45;100.00;101778.91;5009401;28;20042;-75
2023/06/23 04:51:16;;;;;;;35.15;19.55;;;;;;;15.49;100.00;101788.03;5025659;28;20033;-75
2023/06/23 04:53:53;;;;;;;40.25;19.27;;;;;;;15.47;100.00;101784.78;4998244;28;20041;-75
2023/06/23 04:56:22;;;;;;;31.40;19.75;;;;;;;15.49;100.00;101785.44;4994609;28;20033;-74
2023/06/23 04:58:53;;;;;;;30.98;19.50;;;;;;;15.51;100.00;101785.28;5016574;28;20461;-75
2023/06/23 05:01:20;;;;;;;36.08;19.92;;;;;;;15.52;100.00;101790.34;5009666;28;20044;-75
2023/06/23 05:03:48;;;;;;;31.38;18.70;;;;;;;15.56;100.00;101801.28;5008951;28;20428;-74
2023/06/23 05:06:17;;;;;;;38.95;20.83;;;;;;;15.55;100.00;101797.84;5009827;28;20038;-73
2023/06/23 05:08:45;;;;;;;37.38;19.67;;;;;;;15.57;100.00;101792.44;5013102;28;20046;-74
2023/06/23 05:11:12;;;;;;;34.70;21.08;;;;;;;15.61;100.00;101803.41;5008353;28;20045;-74
2023/06/23 05:13:41;;;;;;;30.02;19.27;;;;;;;15.59;100.00;101806.16;5007734;28;20065;-74
2023/06/23 05:16:10;;;;;;;42.42;21.63;;;;;;;15.61;100.00;101812.03;5006959;28;20056;-75
2023/06/23 05:18:38;;;;;;;33.50;20.05;;;;;;;15.72;100.00;101816.94;5009700;28;20117;-74
2023/06/23 05:21:05;;;;;;;38.63;20.55;;;;;;;15.70;100.00;101821.50;5012660;28;20036;-74
2023/06/23 05:23:35;;;;;;;35.22;21.48;;;;;;;15.79;100.00;101824.16;5004423;28;20114;-76
2023/06/23 05:26:03;;;;;;;32.95;21.05;;;;;;;15.80;100.00;101831.00;5011819;28;20297;-74
2023/06/23 05:28:32;;;;;;;35.30;20.95;;;;;;;15.93;100.00;101819.06;5012007;28;20085;-76
2023/06/23 05:31:00;;;;;;;35.25;21.95;;;;;;;16.08;100.00;101823.59;4997110;28;20034;-74
2023/06/23 05:33:30;;;;;;;34.38;21.75;;;;;;;16.19;100.00;101828.47;5009036;28;20131;-76
2023/06/23 05:35:56;;;;;;;33.53;21.60;;;;;;;16.29;100.00;101823.06;5013065;28;20030;-75
2023/06/23 05:38:25;;;;;;;35.75;22.90;;;;;;;16.35;100.00;101822.41;5009509;28;20033;-75
2023/06/23 05:40:51;;;;;;;38.55;21.75;;;;;;;16.43;100.00;101824.16;5022672;28;20038;-75
2023/06/23 05:43:16;;;;;;;35.75;21.98;;;;;;;16.54;100.00;101821.97;4988179;28;20031;-74
2023/06/23 05:45:42;;;;;;;40.90;20.58;;;;;;;16.53;100.00;101824.78;4994947;28;20052;-74
2023/06/23 05:48:39;;;;;;;35.00;21.88;;;;;;;16.45;100.00;101824.81;5011922;28;20121;-74
2023/06/23 05:51:09;;;;;;;36.00;22.17;;;;;;;16.53;100.00;101824.78;5011802;28;20026;-74
2023/06/23 05:53:37;;;;;;;34.92;22.15;;;;;;;16.76;100.00;101824.00;5009386;28;20072;-73
2023/06/23 05:56:12;;;;;;;32.92;21.17;;;;;;;16.96;100.00;101824.44;5002020;28;20065;-73
2023/06/23 05:58:41;;;;;;;36.30;21.45;;;;;;;17.21;100.00;101818.00;5007723;28;20042;-75
2023/06/23 06:01:16;;;;;;;35.45;20.63;;;;;;;17.41;100.00;101831.47;5024154;28;20072;-74
2023/06/23 06:03:47;;;;;;;40.72;19.08;;;;;;;17.59;100.00;101830.34;5007104;28;20041;-74
2023/06/23 06:06:15;;;;;;;28.33;18.40;;;;;;;17.66;100.00;101836.50;5007808;28;20026;-74
2023/06/23 06:08:43;;;;;;;33.58;19.95;;;;;;;17.89;100.00;101832.06;5011114;28;20125;-74
2023/06/23 06:11:11;;;;;;;32.80;20.58;;;;;;;17.92;100.00;101836.13;5009228;28;20545;-74
2023/06/23 06:13:41;;;;;;;32.20;20.55;;;;;;;17.92;100.00;101843.19;5011726;28;20042;-74
2023/06/23 06:16:10;;;;;;;31.92;19.95;;;;;;;18.02;100.00;101849.78;5007761;28;20112;-73
2023/06/23 06:18:37;;;;;;;32.00;19.75;;;;;;;18.05;100.00;101859.94;4987319;28;20444;-74
2023/06/23 06:21:08;;;;;;;34.65;20.80;;;;;;;18.13;100.00;101860.84;5007527;28;20034;-74
2023/06/23 06:23:35;;;;;;;31.65;20.25;;;;;;;18.21;100.00;101860.75;5009267;28;20041;-74
2023/06/23 06:26:01;;;;;;;29.00;18.85;;;;;;;18.34;100.00;101860.94;5010029;28;20030;-74
2023/06/23 06:28:28;;;;;;;26.25;17.48;;;;;;;18.73;100.00;101864.25;4984318;28;20080;-72
2023/06/23 06:30:57;;;;;;;27.38;16.95;;;;;;;18.99;100.00;101861.16;5010456;28;20032;-73
2023/06/23 06:33:27;;;;;;;;;;;;;;;19.24;100.00;101867.66;5013302;28;20095;-74
2023/06/23 06:35:57;;;;;;;28.92;17.02;;;;;;;19.37;100.00;101868.78;5014217;28;19913;-75
2023/06/23 06:38:23;;;;;;;28.40;17.75;;;;;;;19.60;100.00;101871.22;5007820;28;20030;-74
2023/06/23 06:40:53;;;;;;;25.63;15.63;;;;;;;19.80;98.38;101874.03;5005592;28;21006;-74
2023/06/23 06:43:19;;;;;;;28.63;15.10;;;;;;;20.01;98.03;101884.50;5008559;28;20061;-75
2023/06/23 06:45:50;;;;;;;30.52;17.27;;;;;;;20.18;94.49;101878.94;5006860;28;20052;-73
2023/06/23 06:48:17;;;;;;;29.33;18.25;;;;;;;20.29;95.09;101886.28;5008779;28;20049;-73
2023/06/23 06:50:44;;;;;;;24.33;15.77;;;;;;;20.52;92.07;101888.63;5003058;28;20030;-73
2023/06/23 06:53:09;;;;;;;22.98;14.57;;;;;;;20.72;89.54;101882.66;5006488;28;20032;-73
2023/06/23 06:55:35;;;;;;;23.52;15.27;;;;;;;20.92;88.51;101893.28;5008024;28;20025;-75
2023/06/23 06:58:02;;;;;;;18.98;12.95;;;;;;;21.27;88.25;101883.41;4997708;28;20499;-75
2023/06/23 07:00:30;;;;;;;20.92;14.20;;;;;;;21.63;87.33;101887.53;5009016;28;20200;-75
2023/06/23 07:02:57;;;;;;;22.73;14.32;;;;;;;21.89;87.08;101880.63;5013666;28;20288;-74
2023/06/23 07:05:23;;;;;;;18.58;12.82;;;;;;;22.15;85.91;101888.47;5013931;28;20056;-73
2023/06/23 07:07:49;;;;;;;21.20;13.98;;;;;;;22.07;80.35;101890.53;5016466;28;20030;-74
2023/06/23 07:10:14;;;;;;;18.98;13.60;;;;;;;22.29;79.85;101896.41;4994109;28;20038;-74
2023/06/23 07:12:40;;;;;;;18.65;12.35;;;;;;;22.67;79.85;101887.72;5013157;28;20029;-74
2023/06/23 07:15:09;;;;;;;16.55;11.52;;;;;;;22.77;78.75;101885.44;4995236;28;20042;-75
2023/06/23 07:17:34;;;;;;;18.90;11.88;;;;;;;22.86;80.37;101888.66;5021363;28;20029;-74
2023/06/23 07:20:00;;;;;;;20.05;12.35;;;;;;;23.03;78.28;101896.88;4998702;28;20037;-74
2023/06/23 07:22:26;;;;;;;17.23;11.40;;;;;;;23.19;75.81;101900.88;4995395;28;20018;-75
2023/06/23 07:24:51;;;;;;;14.35;9.93;;;;;;;23.57;76.01;101898.16;5012615;28;20408;-75
2023/06/23 07:27:18;;;;;;;16.25;11.73;;;;;;;23.44;76.15;101901.72;5008683;28;20025;-72
2023/06/23 07:29:44;;;;;;;17.27;11.18;;;;;;;23.24;74.20;101914.28;5007710;28;20525;-74
2023/06/23 07:32:10;;;;;;;15.07;10.57;;;;;;;23.17;74.74;101905.56;5010764;28;20113;-74
2023/06/23 07:34:35;;;;;;;17.10;11.40;;;;;;;23.44;74.38;101914.97;5013856;28;20054;-75
2023/06/23 07:37:01;;;;;;;16.75;10.57;;;;;;;23.75;73.99;101915.94;5014378;28;20030;-72
2023/06/23 07:39:27;;;;;;;14.25;10.13;;;;;;;23.94;72.10;101918.66;5030493;28;20042;-77
2023/06/23 07:41:53;;;;;;;16.08;11.85;;;;;;;24.18;69.90;101920.44;5010056;28;21019;-74
2023/06/23 07:44:21;;;;;;;14.70;10.60;;;;;;;24.36;70.22;101922.31;5009703;28;20045;-76
2023/06/23 07:46:46;;;;;;;13.45;9.60;;;;;;;24.42;68.41;101924.06;5013033;28;20459;-73
2023/06/23 07:49:11;;;;;;;16.00;9.10;;;;;;;24.61;67.87;101918.78;5008186;28;20037;-78
2023/06/23 07:51:37;;;;;;;17.20;9.68;;;;;;;24.91;66.50;101916.16;5031452;28;20092;-77
2023/06/23 07:54:02;;;;;;;17.05;11.02;;;;;;;24.96;67.12;101918.94;5005017;28;20034;-75
2023/06/23 07:56:28;;;;;;;14.90;9.25;;;;;;;25.38;65.78;101924.25;5013834;28;20099;-75
2023/06/23 07:58:54;;;;;;;19.35;11.77;;;;;;;25.46;65.70;101917.81;5008575;28;20046;-74
2023/06/23 08:01:20;;;;;;;14.90;9.80;;;;;;;25.78;65.92;101917.50;5011870;28;20045;-75
2023/06/23 08:03:46;;;;;;;19.63;10.98;;;;;;;25.82;65.67;101914.16;5009225;28;20048;-76
2023/06/23 08:06:13;;;;;;;14.05;8.55;;;;;;;25.97;66.17;101923.53;5026699;28;20043;-74
2023/06/23 08:08:38;;;;;;;18.20;10.90;;;;;;;25.70;63.11;101923.97;5009172;28;20046;-76
2023/06/23 08:11:04;;;;;;;14.70;9.45;;;;;;;25.92;64.43;101924.22;4996006;28;20041;-74
2023/06/23 08:13:30;;;;;;;19.75;10.85;;;;;;;26.23;63.06;101923.03;5010185;28;20045;-73
2023/06/23 08:15:55;;;;;;;12.68;8.75;;;;;;;26.64;62.33;101931.06;5013598;28;20030;-76
2023/06/23 08:18:21;;;;;;;17.08;9.73;;;;;;;26.47;60.16;101933.63;5007231;28;20040;-75
2023/06/23 08:20:47;;;;;;;13.05;9.32;;;;;;;26.22;60.14;101940.03;5007951;28;20017;-75
2023/06/23 08:23:13;;;;;;;17.33;9.80;;;;;;;26.26;60.48;101928.91;5008815;28;20037;-75
2023/06/23 08:25:39;;;;;;;19.13;9.00;;;;;;;26.38;60.92;101930.50;5012231;28;20080;-75
2023/06/23 08:28:04;;;;;;;14.07;8.27;;;;;;;26.03;62.81;101938.53;4997347;28;20022;-75
2023/06/23 08:30:31;;;;;;;11.95;8.68;;;;;;;25.97;63.92;101947.44;5009398;28;20041;-75
2023/06/23 08:32:59;;;;;;;11.50;6.40;;;;;;;26.33;61.36;101950.88;5012308;28;20060;-76
2023/06/23 08:35:25;;;;;;;15.88;7.60;;;;;;;26.14;63.41;101951.00;5005739;28;20049;-75
2023/06/23 08:37:51;;;;;;;15.80;9.38;;;;;;;25.43;63.64;101953.59;5009306;28;20030;-75
2023/06/23 08:40:42;;;;;;;16.92;10.18;;;;;;;25.63;62.94;101957.78;5010026;28;20069;-74
2023/06/23 08:43:11;;;;;;;14.80;9.95;;;;;;;25.84;62.41;101946.63;5007095;28;20030;-75
2023/06/23 08:45:44;;;;;;;14.65;8.75;;;;;;;26.03;60.53;101955.31;5010421;28;20461;-75
2023/06/23 08:48:11;;;;;;;11.35;8.38;;;;;;;25.97;59.37;101958.06;4993818;28;20481;-75
2023/06/23 08:50:37;;;;;;;11.55;7.65;;;;;;;26.38;59.42;101964.28;5014100;28;20565;-74
2023/06/23 08:53:04;;;;;;;11.50;7.60;;;;;;;26.32;60.30;101958.03;5015370;28;20104;-76
2023/06/23 08:55:32;;;;;;;10.35;7.70;;;;;;;26.00;62.56;101969.03;5013599;28;20407;-75
2023/06/23 08:58:01;;;;;;;10.45;6.93;;;;;;;26.28;60.76;101972.84;5003579;28;20030;-76
2023/06/23 09:00:27;;;;;;;11.23;7.80;;;;;;;26.42;58.45;101973.38;4993552;28;20615;-76
2023/06/23 09:02:57;;;;;;;10.77;7.80;;;;;;;26.90;57.85;101972.25;5007724;28;20507;-75
2023/06/23 09:05:48;;;;;;;11.20;7.18;;;;;;;27.06;57.46;101978.66;5009674;28;20044;-74
2023/06/23 09:08:14;;;;;;;11.95;8.15;;;;;;;26.63;57.60;101973.84;5008778;28;20033;-74
2023/06/23 09:10:41;;;;;;;12.13;6.68;;;;;;;26.05;55.99;101975.50;5007920;28;20026;-75
2023/06/23 09:13:07;;;;;;;10.43;6.07;;;;;;;26.65;55.62;101977.88;5006708;28;20029;-77
2023/06/23 09:15:34;;;;;;;13.00;6.35;;;;;;;27.08;55.37;101981.88;5007608;28;20052;-74
2023/06/23 09:18:01;;;;;;;7.85;6.07;;;;;;;27.10;52.55;101976.31;5008108;28;20540;-75
2023/06/23 09:20:29;;;;;;;8.57;5.25;;;;;;;27.22;54.29;101977.09;5010744;28;20050;-73
2023/06/23 09:22:55;;;;;;;7.78;5.35;;;;;;;27.39;51.65;101985.13;5009837;28;20095;-75
2023/06/23 09:25:37;;;;;;;7.95;5.88;;;;;;;27.18;53.00;101976.75;5007982;28;21223;-75
2023/06/23 09:28:03;;;;;;;9.10;6.17;;;;;;;26.94;53.43;101983.22;5009946;28;20459;-75
2023/06/23 09:30:33;;;;;;;9.32;6.75;;;;;;;27.13;51.78;101997.16;5007247;28;20124;-75
2023/06/23 09:32:59;;;;;;;9.07;5.78;;;;;;;27.01;52.33;101994.53;5005607;28;20036;-75
2023/06/23 09:35:25;;;;;;;11.25;7.25;;;;;;;26.30;55.34;101999.19;5007301;28;20046;-74
2023/06/23 09:37:50;;;;;;;8.00;5.47;;;;;;;26.60;55.17;101996.41;5009343;28;20053;-76
2023/06/23 09:40:27;;;;;;;7.30;5.00;;;;;;;26.39;54.57;102000.44;5004031;28;20046;-74
2023/06/23 09:42:59;;;;;;;9.30;5.10;;;;;;;26.39;51.78;102011.06;4996739;28;20041;-75
2023/06/23 09:45:25;;;;;;;;;;;;;;;26.66;50.62;102007.94;4990052;28;20412;-75
2023/06/23 09:47:51;;;;;;;9.80;5.68;;;;;;;27.12;52.60;102008.84;5009415;28;19924;-74
2023/06/23 09:50:21;;;;;;;11.68;6.15;;;;;;;27.07;49.61;102006.91;5007070;28;20045;-75
2023/06/23 09:52:46;;;;;;;9.70;6.22;;;;;;;27.30;50.62;102018.53;5010145;28;20040;-76
2023/06/23 09:55:12;;;;;;;12.05;6.30;;;;;;;27.13;50.82;102007.81;5006903;28;20042;-76
2023/06/23 09:57:37;;;;;;;8.02;5.47;;;;;;;27.53;50.02;102012.25;5008131;28;20026;-75
2023/06/23 10:00:08;;;;;;;6.60;5.03;;;;;;;27.75;51.49;102007.03;4994117;28;20455;-76
2023/06/23 10:02:38;;;;;;;8.90;6.30;;;;;;;27.71;50.77;102014.69;5007835;28;20049;-76
2023/06/23 10:05:05;;;;;;;9.23;6.75;;;;;;;27.44;48.96;102022.47;5011179;28;20052;-74
2023/06/23 10:07:31;;;;;;;12.25;7.65;;;;;;;26.82;48.78;102025.81;5007201;28;20109;-75
2023/06/23 10:10:07;;;;;;;11.05;7.00;;;;;;;27.12;47.89;102022.13;5007873;28;20051;-76
2023/06/23 10:12:33;;;;;;;9.23;6.32;;;;;;;27.07;50.39;102025.53;5025400;28;20030;-74
2023/06/23 10:14:59;;;;;;;12.20;6.10;;;;;;;27.45;50.03;102023.31;5007776;28;20061;-75
2023/06/23 10:17:25;;;;;;;10.40;7.13;;;;;;;27.59;50.37;102024.59;5011294;28;20060;-76
2023/06/23 10:19:53;;;;;;;9.35;5.45;;;;;;;27.60;52.80;102026.22;4994656;28;20077;-75
2023/06/23 10:22:21;;;;;;;10.02;5.68;;;;;;;27.49;48.08;102030.56;5010109;28;20042;-75
2023/06/23 10:24:52;;;;;;;7.47;5.28;;;;;;;27.70;45.82;102023.72;5007907;28;20042;-75
2023/06/23 10:27:26;;;;;;;9.18;5.97;;;;;;;27.55;46.15;102016.28;5006108;28;20512;-77
2023/06/23 10:29:58;;;;;;;6.90;4.30;;;;;;;28.04;46.83;102021.06;5006754;28;20057;-75
2023/06/23 10:32:28;;;;;;;5.57;3.92;;;;;;;27.99;47.69;102023.69;5030665;28;20034;-75
2023/06/23 10:35:01;;;;;;;10.07;4.78;;;;;;;27.80;47.90;102015.06;5002347;28;20057;-75
2023/06/23 10:37:27;;;;;;;6.13;4.57;;;;;;;27.74;45.49;102013.38;5000646;28;20396;-75
2023/06/23 10:40:00;;;;;;;7.82;4.18;;;;;;;27.71;46.14;102013.88;5006955;28;20608;-74
2023/06/23 10:42:28;;;;;;;5.80;4.13;;;;;;;27.84;45.99;102020.72;5011984;28;20045;-76
2023/06/23 10:44:54;;;;;;;4.10;3.10;;;;;;;27.99;44.66;102020.19;4999466;28;20066;-76
2023/06/23 10:47:20;;;;;;;4.88;2.92;;;;;;;27.93;43.33;102020.13;5010709;28;20048;-74
2023/06/23 10:49:46;;;;;;;4.72;3.08;;;;;;;27.88;43.25;102021.88;5009725;28;20041;-74
2023/06/23 10:52:13;;;;;;;5.85;4.10;;;;;;;27.79;44.21;102018.81;5011323;28;20044;-75
2023/06/23 10:54:39;;;;;;;5.38;3.63;;;;;;;27.64;44.74;102021.22;4996515;28;20447;-74
2023/06/23 10:57:12;;;;;;;4.88;4.10;;;;;;;27.43;41.83;102015.56;4994250;28;20033;-74
2023/06/23 10:59:57;;;;;;;10.68;4.30;;;;;;;27.38;42.90;102018.91;5011582;28;20046;-75
2023/06/23 11:02:23;;;;;;;6.70;4.72;;;;;;;27.38;45.43;102018.91;5005909;28;20399;-76
2023/06/23 11:05:17;;;;;;;5.15;3.75;;;;;;;27.53;45.14;102013.06;5007165;28;20034;-74
2023/06/23 11:08:02;;;;;;;5.55;4.07;;;;;;;27.75;43.48;102009.69;4979017;28;20038;-74
2023/06/23 11:10:51;;;;;;;8.02;4.22;;;;;;;27.57;43.37;102014.19;5004842;28;20042;-75
2023/06/23 11:13:17;;;;;;;4.65;3.50;;;;;;;27.85;44.49;102011.69;4992450;28;20066;-73
2023/06/23 11:15:54;;;;;;;4.80;3.28;;;;;;;28.13;47.11;102006.28;5008150;28;20057;-75
2023/06/23 11:18:25;;;;;;;6.40;4.45;;;;;;;28.25;46.20;102011.50;5002725;28;20058;-75
2023/06/23 11:20:50;;;;;;;6.10;4.13;;;;;;;27.67;43.61;102013.56;5010123;28;20053;-76